sensor_id;sensor_type;location;lat;lon;timestamp;pressure;altitude;pressure_sealevel;temperature;humidity
5574;BME280;2563;52.242;7.956;2023-01-15T00:01:20;95018.06;;;6.41;100.00
5574;BME280;2563;52.242;7.956;2023-01-15T00:03:46;95017.84;;;6.34;100.00
5574;BME280;2563;52.242;7.956;2023-01-15T00:06:12;95037.78;;;6.30;100.00
5574;BME280;2563;52.242;7.956;2023-01-15T00:08:37;95045.56;;;6.29;100.00
5574;BME280;2563;52.242;7.956;2023-01-15T00:11:03;95057.84;;;6.25;100.00
5574;BME280;2563;52.242;7.956;2023-01-15T00:13:29;95071.69;;;6.23;100.00
5574;BME280;2563;52.242;7.956;2023-01-15T00:16:02;95089.16;;;6.17;100.00
5574;BME280;2563;52.242;7.956;2023-01-15T00:18:27;95103.19;;;6.13;100.00
5574;BME280;2563;52.242;7.956;2023-01-15T00:21:00;95126.13;;;6.13;100.00
5574;BME280;2563;52.242;7.956;2023-01-15T00:23:26;95141.28;;;6.15;100.00
5574;BME280;2563;52.242;7.956;2023-01-15T00:26:20;95159.44;;;6.12;100.00
5574;BME280;2563;52.242;7.956;2023-01-15T00:29:04;95172.50;;;6.09;100.00
5574;BME280;2563;52.242;7.956;2023-01-15T00:31:31;95178.69;;;6.06;100.00
5574;BME280;2563;52.242;7.956;2023-01-15T00:33:56;95187.13;;;6.07;100.00
5574;BME280;2563;52.242;7.956;2023-01-15T00:36:22;95191.44;;;6.06;100.00
5574;BME280;2563;52.242;7.956;2023-01-15T00:38:47;95202.56;;;6.05;100.00
5574;BME280;2563;52.242;7.956;2023-01-15T00:41:13;95220.72;;;6.02;100.00
5574;BME280;2563;52.242;7.956;2023-01-15T00:43:38;95218.97;;;6.03;100.00
5574;BME280;2563;52.242;7.956;2023-01-15T00:46:04;95242.72;;;6.03;100.00
5574;BME280;2563;52.242;7.956;2023-01-15T00:48:30;95246.91;;;6.04;100.00
5574;BME280;2563;52.242;7.956;2023-01-15T00:50:56;95240.16;;;6.03;100.00
5574;BME280;2563;52.242;7.956;2023-01-15T00:53:22;95252.28;;;6.01;100.00
5574;BME280;2563;52.242;7.956;2023-01-15T00:55:48;95253.09;;;6.02;100.00
5574;BME280;2563;52.242;7.956;2023-01-15T00:58:13;95253.22;;;6.00;100.00
5574;BME280;2563;52.242;7.956;2023-01-15T01:00:39;95281.28;;;6.00;100.00
5574;BME280;2563;52.242;7.956;2023-01-15T01:03:04;95294.31;;;5.97;100.00
5574;BME280;2563;52.242;7.956;2023-01-15T01:05:31;95305.44;;;5.96;100.00
5574;BME280;2563;52.242;7.956;2023-01-15T01:07:56;95315.66;;;5.96;100.00
5574;BME280;2563;52.242;7.956;2023-01-15T01:10:24;95314.06;;;5.95;100.00
5574;BME280;2563;52.242;7.956;2023-01-15T01:12:49;95322.66;;;5.94;100.00
5574;BME280;2563;52.242;7.956;2023-01-15T01:15:18;95331.91;;;5.95;100.00
5574;BME280;2563;52.242;7.956;2023-01-15T01:17:44;95336.31;;;5.93;100.00
5574;BME280;2563;52.242;7.956;2023-01-15T01:20:12;95338.47;;;5.88;100.00
5574;BME280;2563;52.242;7.956;2023-01-15T01:22:39;95356.44;;;5.86;100.00
5574;BME280;2563;52.242;7.956;2023-01-15T01:25:05;95361.72;;;5.85;100.00
5574;BME280;2563;52.242;7.956;2023-01-15T01:27:30;95361.03;;;5.83;100.00
5574;BME280;2563;52.242;7.956;2023-01-15T01:29:56;95361.03;;;5.83;100.00
5574;BME280;2563;52.242;7.956;2023-01-15T01:32:21;95376.34;;;5.83;100.00
5574;BME280;2563;52.242;7.956;2023-01-15T01:34:46;95373.91;;;5.81;100.00
5574;BME280;2563;52.242;7.956;2023-01-15T01:37:13;95396.19;;;5.79;100.00
5574;BME280;2563;52.242;7.956;2023-01-15T01:39:39;95410.00;;;5.76;100.00
5574;BME280;2563;52.242;7.956;2023-01-15T01:42:11;95431.09;;;5.79;100.00
5574;BME280;2563;52.242;7.956;2023-01-15T01:47:08;95459.81;;;5.81;100.00
5574;BME280;2563;52.242;7.956;2023-01-15T01:49:35;95464.91;;;5.81;100.00
5574;BME280;2563;52.242;7.956;2023-01-15T01:52:09;95470.03;;;5.81;100.00
5574;BME280;2563;52.242;7.956;2023-01-15T01:54:38;95481.19;;;5.80;100.00
5574;BME280;2563;52.242;7.956;2023-01-15T01:57:06;95491.63;;;5.76;100.00
5574;BME280;2563;52.242;7.956;2023-01-15T01:59:32;95511.63;;;5.71;100.00
5574;BME280;2563;52.242;7.956;2023-01-15T02:01:58;95483.56;;;5.71;100.00
5574;BME280;2563;52.242;7.956;2023-01-15T02:04:25;95499.25;;;5.67;100.00
5574;BME280;2563;52.242;7.956;2023-01-15T02:06:52;95505.44;;;5.64;100.00
5574;BME280;2563;52.242;7.956;2023-01-15T02:09:18;95515.63;;;5.64;100.00
5574;BME280;2563;52.242;7.956;2023-01-15T02:11:43;95527.56;;;5.64;100.00
5574;BME280;2563;52.242;7.956;2023-01-15T02:27:23;95572.25;;;5.58;100.00
5574;BME280;2563;52.242;7.956;2023-01-15T02:30:03;95571.56;;;5.56;100.00
5574;BME280;2563;52.242;7.956;2023-01-15T02:32:44;95574.13;;;5.56;100.00
5574;BME280;2563;52.242;7.956;2023-01-15T02:35:17;95570.63;;;5.57;100.00
5574;BME280;2563;52.242;7.956;2023-01-15T02:37:49;95581.88;;;5.54;100.00
5574;BME280;2563;52.242;7.956;2023-01-15T02:40:19;95599.63;;;5.56;100.00
5574;BME280;2563;52.242;7.956;2023-01-15T02:42:48;95601.47;;;5.54;100.00
5574;BME280;2563;52.242;7.956;2023-01-15T02:45:16;95604.94;;;5.53;100.00
5574;BME280;2563;52.242;7.956;2023-01-15T02:47:46;95600.69;;;5.53;100.00
5574;BME280;2563;52.242;7.956;2023-01-15T02:52:45;95610.72;;;5.55;100.00
5574;BME280;2563;52.242;7.956;2023-01-15T02:55:16;95610.50;;;5.58;100.00
5574;BME280;2563;52.242;7.956;2023-01-15T02:57:46;95605.41;;;5.58;100.00
5574;BME280;2563;52.242;7.956;2023-01-15T03:00:13;95622.56;;;5.56;100.00
5574;BME280;2563;52.242;7.956;2023-01-15T03:02:54;95615.44;;;5.60;100.00
5574;BME280;2563;52.242;7.956;2023-01-15T03:05:26;95616.81;;;5.64;100.00
5574;BME280;2563;52.242;7.956;2023-01-15T03:07:59;95609.97;;;5.64;100.00
5574;BME280;2563;52.242;7.956;2023-01-15T03:10:35;95618.28;;;5.66;100.00
5574;BME280;2563;52.242;7.956;2023-01-15T03:13:03;95620.69;;;5.58;100.00
5574;BME280;2563;52.242;7.956;2023-01-15T03:18:43;95621.13;;;5.63;100.00
5574;BME280;2563;52.242;7.956;2023-01-15T03:21:13;95638.28;;;5.61;100.00
5574;BME280;2563;52.242;7.956;2023-01-15T03:23:44;95633.19;;;5.61;100.00
5574;BME280;2563;52.242;7.956;2023-01-15T03:26:12;95640.03;;;5.61;100.00
5574;BME280;2563;52.242;7.956;2023-01-15T03:28:38;95624.47;;;5.64;100.00
5574;BME280;2563;52.242;7.956;2023-01-15T03:31:04;95632.91;;;5.64;100.00
5574;BME280;2563;52.242;7.956;2023-01-15T03:33:30;95625.66;;;5.60;100.00
5574;BME280;2563;52.242;7.956;2023-01-15T03:35:58;95631.53;;;5.60;100.00
5574;BME280;2563;52.242;7.956;2023-01-15T03:38:29;95626.44;;;5.60;100.00
5574;BME280;2563;52.242;7.956;2023-01-15T03:41:19;95628.50;;;5.66;100.00
5574;BME280;2563;52.242;7.956;2023-01-15T03:44:12;95628.75;;;5.63;100.00
5574;BME280;2563;52.242;7.956;2023-01-15T03:49:49;95635.31;;;5.56;100.00
5574;BME280;2563;52.242;7.956;2023-01-15T04:00:00;95680.41;;;5.56;100.00
5574;BME280;2563;52.242;7.956;2023-01-15T04:02:29;95681.19;;;5.56;100.00
5574;BME280;2563;52.242;7.956;2023-01-15T04:04:55;95685.34;;;5.57;100.00
5574;BME280;2563;52.242;7.956;2023-01-15T04:07:23;95693.16;;;5.56;100.00
5574;BME280;2563;52.242;7.956;2023-01-15T04:09:49;95706.13;;;5.52;100.00
5574;BME280;2563;52.242;7.956;2023-01-15T04:12:14;95718.38;;;5.59;100.00
5574;BME280;2563;52.242;7.956;2023-01-15T04:14:40;95724.97;;;5.61;100.00
5574;BME280;2563;52.242;7.956;2023-01-15T04:17:05;95728.69;;;5.57;100.00
5574;BME280;2563;52.242;7.956;2023-01-15T04:19:31;95723.97;;;5.52;100.00
5574;BME280;2563;52.242;7.956;2023-01-15T04:21:56;95730.56;;;5.55;100.00
5574;BME280;2563;52.242;7.956;2023-01-15T04:24:21;95739.41;;;5.51;100.00
5574;BME280;2563;52.242;7.956;2023-01-15T04:26:47;95736.84;;;5.51;100.00
5574;BME280;2563;52.242;7.956;2023-01-15T04:29:12;95747.97;;;5.50;100.00
5574;BME280;2563;52.242;7.956;2023-01-15T04:31:37;95765.81;;;5.50;100.00
5574;BME280;2563;52.242;7.956;2023-01-15T04:34:03;95753.50;;;5.55;100.00
5574;BME280;2563;52.242;7.956;2023-01-15T04:36:29;95754.19;;;5.57;100.00
5574;BME280;2563;52.242;7.956;2023-01-15T04:38:55;95774.59;;;5.57;100.00
5574;BME280;2563;52.242;7.956;2023-01-15T04:41:21;95782.22;;;5.57;100.00
5574;BME280;2563;52.242;7.956;2023-01-15T04:44:05;95787.47;;;5.56;100.00
5574;BME280;2563;52.242;7.956;2023-01-15T04:46:39;95793.84;;;5.50;100.00
5574;BME280;2563;52.242;7.956;2023-01-15T04:49:08;95816.13;;;5.48;100.00
5574;BME280;2563;52.242;7.956;2023-01-15T04:51:33;95824.44;;;5.50;100.00
5574;BME280;2563;52.242;7.956;2023-01-15T04:54:03;95832.78;;;5.52;100.00
5574;BME280;2563;52.242;7.956;2023-01-15T04:56:28;95834.91;;;5.47;100.00
5574;BME280;2563;52.242;7.956;2023-01-15T04:58:54;95845.91;;;5.47;100.00
5574;BME280;2563;52.242;7.956;2023-01-15T05:01:19;95854.34;;;5.48;100.00
5574;BME280;2563;52.242;7.956;2023-01-15T05:03:44;95858.22;;;5.42;100.00
5574;BME280;2563;52.242;7.956;2023-01-15T05:06:10;95876.31;;;5.39;100.00
5574;BME280;2563;52.242;7.956;2023-01-15T05:08:38;95875.34;;;5.40;100.00
5574;BME280;2563;52.242;7.956;2023-01-15T05:11:05;95886.59;;;5.38;100.00
5574;BME280;2563;52.242;7.956;2023-01-15T05:13:31;95883.84;;;5.29;100.00
5574;BME280;2563;52.242;7.956;2023-01-15T05:16:26;95900.19;;;5.27;100.00
5574;BME280;2563;52.242;7.956;2023-01-15T05:18:54;95898.09;;;5.32;100.00
5574;BME280;2563;52.242;7.956;2023-01-15T05:21:23;95911.44;;;5.24;100.00
5574;BME280;2563;52.242;7.956;2023-01-15T05:23:51;95908.66;;;5.27;100.00
5574;BME280;2563;52.242;7.956;2023-01-15T05:26:17;95918.59;;;5.30;100.00
5574;BME280;2563;52.242;7.956;2023-01-15T05:28:43;95929.72;;;5.29;100.00
5574;BME280;2563;52.242;7.956;2023-01-15T05:31:11;95955.44;;;5.26;100.00
5574;BME280;2563;52.242;7.956;2023-01-15T05:33:37;95961.91;;;5.30;100.00
5574;BME280;2563;52.242;7.956;2023-01-15T05:36:08;95959.63;;;5.27;100.00
5574;BME280;2563;52.242;7.956;2023-01-15T05:38:34;95974.31;;;5.24;100.00
5574;BME280;2563;52.242;7.956;2023-01-15T05:41:04;95974.22;;;5.25;100.00
5574;BME280;2563;52.242;7.956;2023-01-15T05:43:50;95970.72;;;5.26;100.00
5574;BME280;2563;52.242;7.956;2023-01-15T05:46:16;95984.97;;;5.29;100.00
5574;BME280;2563;52.242;7.956;2023-01-15T05:48:41;95996.91;;;5.28;100.00
5574;BME280;2563;52.242;7.956;2023-01-15T05:51:07;95992.63;;;5.29;100.00
5574;BME280;2563;52.242;7.956;2023-01-15T05:53:32;95991.47;;;5.33;100.00
5574;BME280;2563;52.242;7.956;2023-01-15T05:56:05;96003.28;;;5.34;100.00
5574;BME280;2563;52.242;7.956;2023-01-15T05:58:31;96007.91;;;5.40;100.00
5574;BME280;2563;52.242;7.956;2023-01-15T06:00:56;96016.59;;;5.38;100.00
5574;BME280;2563;52.242;7.956;2023-01-15T06:03:23;96019.72;;;5.41;100.00
5574;BME280;2563;52.242;7.956;2023-01-15T06:05:52;96023.44;;;5.37;100.00
5574;BME280;2563;52.242;7.956;2023-01-15T06:08:18;96043.25;;;5.33;100.00
5574;BME280;2563;52.242;7.956;2023-01-15T06:10:44;96051.59;;;5.36;100.00
5574;BME280;2563;52.242;7.956;2023-01-15T06:13:09;96044.75;;;5.36;100.00
5574;BME280;2563;52.242;7.956;2023-01-15T06:15:35;96039.53;;;5.38;100.00
5574;BME280;2563;52.242;7.956;2023-01-15T06:18:00;96049.72;;;5.38;100.00
5574;BME280;2563;52.242;7.956;2023-01-15T06:20:26;96059.94;;;5.38;100.00
5574;BME280;2563;52.242;7.956;2023-01-15T06:22:51;96068.50;;;5.37;100.00
5574;BME280;2563;52.242;7.956;2023-01-15T06:25:16;96071.28;;;5.45;100.00
5574;BME280;2563;52.242;7.956;2023-01-15T06:27:42;96070.47;;;5.44;100.00
5574;BME280;2563;52.242;7.956;2023-01-15T06:30:10;96079.72;;;5.45;100.00
5574;BME280;2563;52.242;7.956;2023-01-15T06:32:35;96084.13;;;5.43;100.00
5574;BME280;2563;52.242;7.956;2023-01-15T06:35:00;96080.53;;;5.46;100.00
5574;BME280;2563;52.242;7.956;2023-01-15T06:37:26;96096.31;;;5.51;100.00
5574;BME280;2563;52.242;7.956;2023-01-15T06:39:51;96091.91;;;5.53;100.00
5574;BME280;2563;52.242;7.956;2023-01-15T06:42:16;96087.28;;;5.58;100.00
5574;BME280;2563;52.242;7.956;2023-01-15T06:45:00;96089.13;;;5.56;100.00
5574;BME280;2563;52.242;7.956;2023-01-15T06:47:46;96096.31;;;5.51;100.00
5574;BME280;2563;52.242;7.956;2023-01-15T06:50:12;96099.34;;;5.56;100.00
5574;BME280;2563;52.242;7.956;2023-01-15T06:52:38;96107.91;;;5.55;100.00
5574;BME280;2563;52.242;7.956;2023-01-15T06:55:04;96131.41;;;5.47;100.00
5574;BME280;2563;52.242;7.956;2023-01-15T06:57:30;96140.13;;;5.45;100.00
5574;BME280;2563;52.242;7.956;2023-01-15T06:59:55;96159.38;;;5.49;100.00
5574;BME280;2563;52.242;7.956;2023-01-15T07:02:21;96156.81;;;5.49;100.00
5574;BME280;2563;52.242;7.956;2023-01-15T07:04:46;96168.84;;;5.47;100.00
5574;BME280;2563;52.242;7.956;2023-01-15T07:07:17;96159.03;;;5.53;100.00
5574;BME280;2563;52.242;7.956;2023-01-15T07:09:43;96167.47;;;5.54;100.00
5574;BME280;2563;52.242;7.956;2023-01-15T07:12:09;96169.44;;;5.62;100.00
5574;BME280;2563;52.242;7.956;2023-01-15T07:14:35;96181.16;;;5.64;100.00
5574;BME280;2563;52.242;7.956;2023-01-15T07:17:01;96184.41;;;5.66;100.00
5574;BME280;2563;52.242;7.956;2023-01-15T07:19:26;96200.66;;;5.65;100.00
5574;BME280;2563;52.242;7.956;2023-01-15T07:21:52;96200.84;;;5.62;100.00
5574;BME280;2563;52.242;7.956;2023-01-15T07:24:17;96205.97;;;5.62;100.00
5574;BME280;2563;52.242;7.956;2023-01-15T07:26:43;96203.31;;;5.64;100.00
5574;BME280;2563;52.242;7.956;2023-01-15T07:29:09;96210.84;;;5.65;100.00
5574;BME280;2563;52.242;7.956;2023-01-15T07:31:35;96204.72;;;5.68;100.00
5574;BME280;2563;52.242;7.956;2023-01-15T07:34:00;96204.72;;;5.68;100.00
5574;BME280;2563;52.242;7.956;2023-01-15T07:36:25;96210.63;;;5.68;100.00
5574;BME280;2563;52.242;7.956;2023-01-15T07:38:51;96237.97;;;5.66;100.00
5574;BME280;2563;52.242;7.956;2023-01-15T07:41:16;96244.69;;;5.67;100.00
5574;BME280;2563;52.242;7.956;2023-01-15T07:44:00;96241.78;;;5.72;100.00
5574;BME280;2563;52.242;7.956;2023-01-15T07:46:44;96264.88;;;5.70;100.00
5574;BME280;2563;52.242;7.956;2023-01-15T07:49:28;96265.78;;;5.69;100.00
5574;BME280;2563;52.242;7.956;2023-01-15T07:52:13;96279.22;;;5.60;100.00
5574;BME280;2563;52.242;7.956;2023-01-15T07:54:38;96278.78;;;5.66;100.00
5574;BME280;2563;52.242;7.956;2023-01-15T07:57:04;96293.28;;;5.66;100.00
5574;BME280;2563;52.242;7.956;2023-01-15T07:59:30;96305.88;;;5.67;100.00
5574;BME280;2563;52.242;7.956;2023-01-15T08:01:55;96301.63;;;5.68;100.00
5574;BME280;2563;52.242;7.956;2023-01-15T08:04:21;96322.22;;;5.65;100.00
5574;BME280;2563;52.242;7.956;2023-01-15T08:06:46;96342.84;;;5.62;100.00
5574;BME280;2563;52.242;7.956;2023-01-15T08:09:11;96342.84;;;5.62;100.00
5574;BME280;2563;52.242;7.956;2023-01-15T08:11:37;96352.97;;;5.63;100.00
5574;BME280;2563;52.242;7.956;2023-01-15T08:14:21;96355.50;;;5.63;100.00
5574;BME280;2563;52.242;7.956;2023-01-15T08:17:05;96379.13;;;5.54;100.00
5574;BME280;2563;52.242;7.956;2023-01-15T08:19:31;96387.00;;;5.51;100.00
5574;BME280;2563;52.242;7.956;2023-01-15T08:21:56;96398.25;;;5.60;100.00
5574;BME280;2563;52.242;7.956;2023-01-15T08:24:23;96398.16;;;5.61;100.00
5574;BME280;2563;52.242;7.956;2023-01-15T08:26:48;96399.59;;;5.52;100.00
5574;BME280;2563;52.242;7.956;2023-01-15T08:29:14;96420.22;;;5.49;100.00
5574;BME280;2563;52.242;7.956;2023-01-15T08:31:39;96421.53;;;5.55;100.00
5574;BME280;2563;52.242;7.956;2023-01-15T08:34:07;96426.63;;;5.55;100.00
5574;BME280;2563;52.242;7.956;2023-01-15T08:36:32;96432.03;;;5.50;100.00
5574;BME280;2563;52.242;7.956;2023-01-15T08:38:58;96458.75;;;5.58;100.00
5574;BME280;2563;52.242;7.956;2023-01-15T08:41:23;96462.41;;;5.66;100.00
5574;BME280;2563;52.242;7.956;2023-01-15T08:43:49;96464.72;;;5.69;100.00
5574;BME280;2563;52.242;7.956;2023-01-15T08:46:14;96468.59;;;5.75;100.00
5574;BME280;2563;52.242;7.956;2023-01-15T08:48:39;96470.31;;;5.74;100.00
5574;BME280;2563;52.242;7.956;2023-01-15T08:51:07;96479.38;;;5.79;100.00
5574;BME280;2563;52.242;7.956;2023-01-15T08:53:32;96504.41;;;5.73;100.00
5574;BME280;2563;52.242;7.956;2023-01-15T08:55:58;96505.44;;;5.71;100.00
5574;BME280;2563;52.242;7.956;2023-01-15T08:58:27;96533.59;;;5.69;100.00
5574;BME280;2563;52.242;7.956;2023-01-15T09:00:54;96536.84;;;5.71;100.00
5574;BME280;2563;52.242;7.956;2023-01-15T09:03:19;96547.06;;;5.71;100.00
5574;BME280;2563;52.242;7.956;2023-01-15T09:05:45;96566.75;;;5.69;100.00
5574;BME280;2563;52.242;7.956;2023-01-15T09:08:10;96565.94;;;5.69;100.00
5574;BME280;2563;52.242;7.956;2023-01-15T09:10:36;96569.31;;;5.69;100.00
5574;BME280;2563;52.242;7.956;2023-01-15T09:13:02;96581.56;;;5.64;100.00
5574;BME280;2563;52.242;7.956;2023-01-15T09:15:29;96604.81;;;5.60;100.00
5574;BME280;2563;52.242;7.956;2023-01-15T09:17:55;96617.69;;;5.58;100.00
5574;BME280;2563;52.242;7.956;2023-01-15T09:20:21;96631.56;;;5.54;100.00
5574;BME280;2563;52.242;7.956;2023-01-15T09:22:47;96628.19;;;5.66;100.00
5574;BME280;2563;52.242;7.956;2023-01-15T09:25:13;96619.47;;;5.82;100.00
5574;BME280;2563;52.242;7.956;2023-01-15T09:27:41;96636.25;;;5.99;100.00
5574;BME280;2563;52.242;7.956;2023-01-15T09:30:09;96626.56;;;6.15;100.00
5574;BME280;2563;52.242;7.956;2023-01-15T09:32:34;96605.25;;;6.40;100.00
5574;BME280;2563;52.242;7.956;2023-01-15T09:35:00;96617.00;;;6.43;100.00
5574;BME280;2563;52.242;7.956;2023-01-15T09:37:26;96640.19;;;6.39;100.00
5574;BME280;2563;52.242;7.956;2023-01-15T09:39:51;96663.69;;;6.32;100.00
5574;BME280;2563;52.242;7.956;2023-01-15T09:42:54;96672.13;;;6.21;100.00
5574;BME280;2563;52.242;7.956;2023-01-15T09:45:28;96674.13;;;6.29;100.00
5574;BME280;2563;52.242;7.956;2023-01-15T09:54:18;96730.31;;;6.29;100.00
5574;BME280;2563;52.242;7.956;2023-01-15T09:56:26;96746.16;;;6.21;100.00
5574;BME280;2563;52.242;7.956;2023-01-15T09:58:53;96742.78;;;6.21;100.00
5574;BME280;2563;52.242;7.956;2023-01-15T10:01:25;96772.69;;;6.18;100.00
5574;BME280;2563;52.242;7.956;2023-01-15T10:06:44;96793.00;;;6.33;100.00
5574;BME280;2563;52.242;7.956;2023-01-15T10:09:20;96808.63;;;6.28;100.00
5574;BME280;2563;52.242;7.956;2023-01-15T10:11:54;96815.16;;;6.20;100.00
5574;BME280;2563;52.242;7.956;2023-01-15T10:14:59;96817.91;;;6.29;100.00
5574;BME280;2563;52.242;7.956;2023-01-15T10:17:39;96828.16;;;6.42;100.00
5574;BME280;2563;52.242;7.956;2023-01-15T10:20:30;96851.63;;;6.47;100.00
5574;BME280;2563;52.242;7.956;2023-01-15T10:26:02;96901.50;;;6.40;100.00
5574;BME280;2563;52.242;7.956;2023-01-15T10:28:31;96918.25;;;6.44;100.00
5574;BME280;2563;52.242;7.956;2023-01-15T10:31:10;96926.44;;;6.49;100.00
5574;BME280;2563;52.242;7.956;2023-01-15T10:33:48;96944.59;;;6.57;100.00
5574;BME280;2563;52.242;7.956;2023-01-15T10:39:09;96952.38;;;6.69;100.00
5574;BME280;2563;52.242;7.956;2023-01-15T10:44:45;97004.81;;;6.62;100.00
5574;BME280;2563;52.242;7.956;2023-01-15T10:47:15;97017.97;;;6.55;100.00
5574;BME280;2563;52.242;7.956;2023-01-15T10:49:42;97031.47;;;6.57;100.00
5574;BME280;2563;52.242;7.956;2023-01-15T10:54:50;97049.91;;;6.75;100.00
5574;BME280;2563;52.242;7.956;2023-01-15T10:57:23;97085.03;;;6.72;100.00
5574;BME280;2563;52.242;7.956;2023-01-15T10:59:59;97085.84;;;6.72;100.00
5574;BME280;2563;52.242;7.956;2023-01-15T11:03:12;97085.84;;;6.72;100.00
5574;BME280;2563;52.242;7.956;2023-01-15T11:05:34;97112.53;;;6.68;100.00
5574;BME280;2563;52.242;7.956;2023-01-15T11:08:03;97140.44;;;6.71;100.00
5574;BME280;2563;52.242;7.956;2023-01-15T11:10:31;97133.81;;;6.69;100.00
5574;BME280;2563;52.242;7.956;2023-01-15T11:13:01;97156.06;;;6.67;100.00
5574;BME280;2563;52.242;7.956;2023-01-15T11:15:47;97183.53;;;6.63;100.00
5574;BME280;2563;52.242;7.956;2023-01-15T11:18:40;97188.84;;;6.60;100.00
5574;BME280;2563;52.242;7.956;2023-01-15T11:21:25;97209.41;;;6.58;100.00
5574;BME280;2563;52.242;7.956;2023-01-15T11:23:52;97212.19;;;6.68;100.00
5574;BME280;2563;52.242;7.956;2023-01-15T11:26:26;97228.44;;;6.67;100.00
5574;BME280;2563;52.242;7.956;2023-01-15T11:28:52;97243.03;;;6.65;100.00
5574;BME280;2563;52.242;7.956;2023-01-15T11:31:19;97241.94;;;6.69;100.00
5574;BME280;2563;52.242;7.956;2023-01-15T11:33:59;97258.44;;;6.78;100.00
5574;BME280;2563;52.242;7.956;2023-01-15T11:36:27;97257.72;;;6.76;100.00
5574;BME280;2563;52.242;7.956;2023-01-15T11:38:53;97269.41;;;6.80;100.00
5574;BME280;2563;52.242;7.956;2023-01-15T11:44:11;97278.88;;;6.78;100.00
5574;BME280;2563;52.242;7.956;2023-01-15T11:46:55;97309.56;;;6.78;100.00
5574;BME280;2563;52.242;7.956;2023-01-15T11:49:48;97318.66;;;6.82;100.00
5574;BME280;2563;52.242;7.956;2023-01-15T11:52:33;97327.59;;;6.89;100.00
5574;BME280;2563;52.242;7.956;2023-01-15T11:55:01;97331.06;;;6.88;100.00
5574;BME280;2563;52.242;7.956;2023-01-15T11:57:30;97347.22;;;6.89;100.00
5574;BME280;2563;52.242;7.956;2023-01-15T11:59:56;97351.72;;;6.85;100.00
5574;BME280;2563;52.242;7.956;2023-01-15T12:02:37;97367.06;;;6.85;100.00
5574;BME280;2563;52.242;7.956;2023-01-15T12:05:15;97367.41;;;6.79;100.00
5574;BME280;2563;52.242;7.956;2023-01-15T12:07:42;97387.03;;;6.78;100.00
5574;BME280;2563;52.242;7.956;2023-01-15T12:12:48;97414.50;;;6.75;100.00
5574;BME280;2563;52.242;7.956;2023-01-15T12:15:23;97412.88;;;6.74;100.00
5574;BME280;2563;52.242;7.956;2023-01-15T12:26:05;97441.06;;;6.72;100.00
5574;BME280;2563;52.242;7.956;2023-01-15T12:28:39;97441.72;;;6.76;100.00
5574;BME280;2563;52.242;7.956;2023-01-15T12:31:19;97438.09;;;6.80;100.00
5574;BME280;2563;52.242;7.956;2023-01-15T12:34:11;97453.50;;;6.78;100.00
5574;BME280;2563;52.242;7.956;2023-01-15T12:36:45;97459.59;;;6.76;100.00
5574;BME280;2563;52.242;7.956;2023-01-15T12:39:19;97463.25;;;6.86;100.00
5574;BME280;2563;52.242;7.956;2023-01-15T12:41:52;97456.53;;;6.99;100.00
5574;BME280;2563;52.242;7.956;2023-01-15T12:44:49;97474.56;;;6.96;100.00
5574;BME280;2563;52.242;7.956;2023-01-15T12:55:52;97474.69;;;7.09;100.00
5574;BME280;2563;52.242;7.956;2023-01-15T13:04:02;97511.75;;;6.88;100.00
5574;BME280;2563;52.242;7.956;2023-01-15T13:06:31;97524.25;;;6.78;100.00
5574;BME280;2563;52.242;7.956;2023-01-15T13:09:17;97532.16;;;6.73;100.00
5574;BME280;2563;52.242;7.956;2023-01-15T13:11:43;97541.41;;;6.76;100.00
5574;BME280;2563;52.242;7.956;2023-01-15T13:14:14;97533.72;;;6.76;100.00
5574;BME280;2563;52.242;7.956;2023-01-15T13:16:55;97521.56;;;6.79;100.00
5574;BME280;2563;52.242;7.956;2023-01-15T13:22:15;97530.66;;;6.85;100.00
5574;BME280;2563;52.242;7.956;2023-01-15T13:32:54;97523.88;;;6.84;100.00
5574;BME280;2563;52.242;7.956;2023-01-15T13:37:57;97509.81;;;6.91;100.00
5574;BME280;2563;52.242;7.956;2023-01-15T13:40:34;97526.81;;;6.92;100.00
5574;BME280;2563;52.242;7.956;2023-01-15T13:43:03;97530.66;;;6.99;100.00
5574;BME280;2563;52.242;7.956;2023-01-15T13:45:35;97515.88;;;7.05;100.00
5574;BME280;2563;52.242;7.956;2023-01-15T13:48:10;97547.38;;;7.05;100.00
5574;BME280;2563;52.242;7.956;2023-01-15T13:50:41;97558.78;;;6.99;100.00
5574;BME280;2563;52.242;7.956;2023-01-15T13:53:16;97569.91;;;6.98;100.00
5574;BME280;2563;52.242;7.956;2023-01-15T13:55:54;97568.09;;;7.00;100.00
5574;BME280;2563;52.242;7.956;2023-01-15T13:58:34;97582.16;;;6.93;100.00
5574;BME280;2563;52.242;7.956;2023-01-15T14:04:02;97585.22;;;6.84;100.00
5574;BME280;2563;52.242;7.956;2023-01-15T14:06:42;97593.88;;;6.81;100.00
5574;BME280;2563;52.242;7.956;2023-01-15T14:09:11;97600.25;;;6.74;100.00
5574;BME280;2563;52.242;7.956;2023-01-15T14:11:44;97601.44;;;6.69;100.00
5574;BME280;2563;52.242;7.956;2023-01-15T14:19:41;97616.75;;;6.69;100.00
5574;BME280;2563;52.242;7.956;2023-01-15T14:22:39;97643.00;;;6.56;100.00
5574;BME280;2563;52.242;7.956;2023-01-15T14:25:30;97651.41;;;6.27;100.00
5574;BME280;2563;52.242;7.956;2023-01-15T14:33:10;97653.53;;;6.03;100.00
5574;BME280;2563;52.242;7.956;2023-01-15T14:35:44;97636.47;;;6.03;100.00
5574;BME280;2563;52.242;7.956;2023-01-15T14:38:19;97624.22;;;6.10;100.00
5574;BME280;2563;52.242;7.956;2023-01-15T14:40:54;97618.28;;;6.09;100.00
5574;BME280;2563;52.242;7.956;2023-01-15T14:43:21;97601.97;;;6.12;100.00
5574;BME280;2563;52.242;7.956;2023-01-15T14:45:50;97597.84;;;6.09;100.00
5574;BME280;2563;52.242;7.956;2023-01-15T14:51:15;97595.22;;;6.11;100.00
5574;BME280;2563;52.242;7.956;2023-01-15T14:53:51;97592.09;;;6.06;100.00
5574;BME280;2563;52.242;7.956;2023-01-15T14:56:20;97589.56;;;6.06;100.00
5574;BME280;2563;52.242;7.956;2023-01-15T15:01:38;97579.59;;;6.01;100.00
5574;BME280;2563;52.242;7.956;2023-01-15T15:06:47;97598.59;;;5.95;100.00
5574;BME280;2563;52.242;7.956;2023-01-15T15:09:35;97574.63;;;5.98;100.00
5574;BME280;2563;52.242;7.956;2023-01-15T15:14:57;97556.50;;;6.03;100.00
5574;BME280;2563;52.242;7.956;2023-01-15T15:23:15;97554.69;;;6.05;100.00
5574;BME280;2563;52.242;7.956;2023-01-15T15:25:53;97560.63;;;6.05;100.00
5574;BME280;2563;52.242;7.956;2023-01-15T15:28:19;97554.47;;;6.09;100.00
5574;BME280;2563;52.242;7.956;2023-01-15T15:30:45;97558.19;;;6.04;100.00
5574;BME280;2563;52.242;7.956;2023-01-15T15:33:18;97533.63;;;6.01;100.00
5574;BME280;2563;52.242;7.956;2023-01-15T15:35:48;97554.19;;;5.98;100.00
5574;BME280;2563;52.242;7.956;2023-01-15T15:38:17;97564.41;;;5.98;100.00
5574;BME280;2563;52.242;7.956;2023-01-15T15:40:54;97548.59;;;5.91;100.00
5574;BME280;2563;52.242;7.956;2023-01-15T15:46:28;97558.22;;;5.70;100.00